sensor_id;sensor_type;location;lat;lon;timestamp;temperature;humidity
9730;DHT22;4904;49.152;11.004;2023-04-29T00:01:23;11.20;99.90
9730;DHT22;4904;49.152;11.004;2023-04-29T00:03:52;11.20;99.90
9730;DHT22;4904;49.152;11.004;2023-04-29T00:06:19;11.20;99.90
9730;DHT22;4904;49.152;11.004;2023-04-29T00:08:47;11.20;99.90
9730;DHT22;4904;49.152;11.004;2023-04-29T00:11:16;11.30;99.90
9730;DHT22;4904;49.152;11.004;2023-04-29T00:13:43;11.40;99.90
9730;DHT22;4904;49.152;11.004;2023-04-29T00:16:10;11.30;99.90
9730;DHT22;4904;49.152;11.004;2023-04-29T00:18:38;12.00;99.90
9730;DHT22;4904;49.152;11.004;2023-04-29T00:21:06;11.30;99.90
9730;DHT22;4904;49.152;11.004;2023-04-29T00:23:34;11.40;99.90
9730;DHT22;4904;49.152;11.004;2023-04-29T00:26:01;11.30;99.90
9730;DHT22;4904;49.152;11.004;2023-04-29T00:28:28;11.30;99.90
9730;DHT22;4904;49.152;11.004;2023-04-29T00:30:55;11.40;99.90
9730;DHT22;4904;49.152;11.004;2023-04-29T00:33:22;11.40;99.90
9730;DHT22;4904;49.152;11.004;2023-04-29T00:35:49;11.50;99.90
9730;DHT22;4904;49.152;11.004;2023-04-29T00:38:18;11.40;99.90
9730;DHT22;4904;49.152;11.004;2023-04-29T00:40:46;11.50;99.90
9730;DHT22;4904;49.152;11.004;2023-04-29T00:43:13;11.50;99.90
9730;DHT22;4904;49.152;11.004;2023-04-29T00:45:40;11.50;99.90
9730;DHT22;4904;49.152;11.004;2023-04-29T00:48:07;11.50;99.90
9730;DHT22;4904;49.152;11.004;2023-04-29T00:50:34;11.50;99.90
9730;DHT22;4904;49.152;11.004;2023-04-29T00:53:02;11.50;99.90
9730;DHT22;4904;49.152;11.004;2023-04-29T00:55:32;11.50;99.90
9730;DHT22;4904;49.152;11.004;2023-04-29T00:57:59;11.40;99.90
9730;DHT22;4904;49.152;11.004;2023-04-29T01:00:27;11.50;99.90
9730;DHT22;4904;49.152;11.004;2023-04-29T01:02:54;11.40;99.90
9730;DHT22;4904;49.152;11.004;2023-04-29T01:05:22;11.50;99.90
9730;DHT22;4904;49.152;11.004;2023-04-29T01:07:58;11.50;99.90
9730;DHT22;4904;49.152;11.004;2023-04-29T01:10:40;11.60;99.90
9730;DHT22;4904;49.152;11.004;2023-04-29T01:13:12;11.40;99.90
9730;DHT22;4904;49.152;11.004;2023-04-29T01:15:46;11.40;99.90
9730;DHT22;4904;49.152;11.004;2023-04-29T01:18:19;11.40;99.90
9730;DHT22;4904;49.152;11.004;2023-04-29T01:20:49;11.70;99.90
9730;DHT22;4904;49.152;11.004;2023-04-29T01:23:16;11.40;99.90
9730;DHT22;4904;49.152;11.004;2023-04-29T01:25:44;11.40;99.90
9730;DHT22;4904;49.152;11.004;2023-04-29T01:28:22;11.40;99.90
9730;DHT22;4904;49.152;11.004;2023-04-29T01:31:09;11.50;99.90
9730;DHT22;4904;49.152;11.004;2023-04-29T01:33:46;11.60;99.90
9730;DHT22;4904;49.152;11.004;2023-04-29T01:36:21;11.70;99.90
9730;DHT22;4904;49.152;11.004;2023-04-29T01:38:59;11.70;99.90
9730;DHT22;4904;49.152;11.004;2023-04-29T01:41:34;11.80;99.90
9730;DHT22;4904;49.152;11.004;2023-04-29T01:44:14;11.80;99.90
9730;DHT22;4904;49.152;11.004;2023-04-29T01:46:43;11.80;99.90
9730;DHT22;4904;49.152;11.004;2023-04-29T01:49:13;11.90;99.90
9730;DHT22;4904;49.152;11.004;2023-04-29T01:51:40;11.90;99.90
9730;DHT22;4904;49.152;11.004;2023-04-29T01:54:07;11.80;99.90
9730;DHT22;4904;49.152;11.004;2023-04-29T01:56:35;11.70;99.90
9730;DHT22;4904;49.152;11.004;2023-04-29T01:59:02;11.70;99.90
9730;DHT22;4904;49.152;11.004;2023-04-29T02:01:29;11.70;99.90
9730;DHT22;4904;49.152;11.004;2023-04-29T02:03:56;11.70;99.90
9730;DHT22;4904;49.152;11.004;2023-04-29T02:06:24;11.80;99.90
9730;DHT22;4904;49.152;11.004;2023-04-29T02:08:51;11.70;99.90
9730;DHT22;4904;49.152;11.004;2023-04-29T02:11:18;11.70;99.90
9730;DHT22;4904;49.152;11.004;2023-04-29T02:13:47;11.70;99.90
9730;DHT22;4904;49.152;11.004;2023-04-29T02:16:14;11.70;99.90
9730;DHT22;4904;49.152;11.004;2023-04-29T02:18:41;11.70;99.90
9730;DHT22;4904;49.152;11.004;2023-04-29T02:21:08;11.70;99.90
9730;DHT22;4904;49.152;11.004;2023-04-29T02:23:36;11.70;99.90
9730;DHT22;4904;49.152;11.004;2023-04-29T02:26:04;11.70;99.90
9730;DHT22;4904;49.152;11.004;2023-04-29T02:28:31;11.60;99.90
9730;DHT22;4904;49.152;11.004;2023-04-29T02:31:00;11.90;99.90
9730;DHT22;4904;49.152;11.004;2023-04-29T02:33:27;11.60;99.90
9730;DHT22;4904;49.152;11.004;2023-04-29T02:35:54;11.60;99.90
9730;DHT22;4904;49.152;11.004;2023-04-29T02:38:21;11.60;99.90
9730;DHT22;4904;49.152;11.004;2023-04-29T02:40:48;11.60;99.90
9730;DHT22;4904;49.152;11.004;2023-04-29T02:43:15;11.50;99.90
9730;DHT22;4904;49.152;11.004;2023-04-29T02:45:43;11.50;99.90
9730;DHT22;4904;49.152;11.004;2023-04-29T02:48:11;11.50;99.90
9730;DHT22;4904;49.152;11.004;2023-04-29T02:50:38;11.00;99.90
9730;DHT22;4904;49.152;11.004;2023-04-29T02:53:05;11.10;99.90
9730;DHT22;4904;49.152;11.004;2023-04-29T02:55:32;11.10;99.90
9730;DHT22;4904;49.152;11.004;2023-04-29T02:57:59;11.30;99.90
9730;DHT22;4904;49.152;11.004;2023-04-29T03:00:26;11.20;99.90
9730;DHT22;4904;49.152;11.004;2023-04-29T03:02:53;11.20;99.90
9730;DHT22;4904;49.152;11.004;2023-04-29T03:05:22;11.20;99.90
9730;DHT22;4904;49.152;11.004;2023-04-29T03:07:49;10.80;99.90
9730;DHT22;4904;49.152;11.004;2023-04-29T03:10:16;10.80;99.90
9730;DHT22;4904;49.152;11.004;2023-04-29T03:12:44;10.70;99.90
9730;DHT22;4904;49.152;11.004;2023-04-29T03:15:11;10.70;99.90
9730;DHT22;4904;49.152;11.004;2023-04-29T03:17:38;10.70;99.90
9730;DHT22;4904;49.152;11.004;2023-04-29T03:20:06;10.60;99.90
9730;DHT22;4904;49.152;11.004;2023-04-29T03:22:36;10.50;99.90
9730;DHT22;4904;49.152;11.004;2023-04-29T03:25:03;9.80;99.90
9730;DHT22;4904;49.152;11.004;2023-04-29T03:27:30;9.70;99.90
9730;DHT22;4904;49.152;11.004;2023-04-29T03:29:57;9.90;99.90
9730;DHT22;4904;49.152;11.004;2023-04-29T03:32:24;10.00;99.90
9730;DHT22;4904;49.152;11.004;2023-04-29T03:34:51;10.10;99.90
9730;DHT22;4904;49.152;11.004;2023-04-29T03:37:19;10.20;99.90
9730;DHT22;4904;49.152;11.004;2023-04-29T03:39:47;10.10;99.90
9730;DHT22;4904;49.152;11.004;2023-04-29T03:42:14;9.80;99.90
9730;DHT22;4904;49.152;11.004;2023-04-29T03:44:41;9.80;99.90
9730;DHT22;4904;49.152;11.004;2023-04-29T03:47:08;9.90;99.90
9730;DHT22;4904;49.152;11.004;2023-04-29T03:49:36;9.90;99.90
9730;DHT22;4904;49.152;11.004;2023-04-29T03:52:03;9.90;99.90
9730;DHT22;4904;49.152;11.004;2023-04-29T03:54:31;10.00;99.90
9730;DHT22;4904;49.152;11.004;2023-04-29T03:56:59;10.10;99.90
9730;DHT22;4904;49.152;11.004;2023-04-29T03:59:28;10.10;99.90
9730;DHT22;4904;49.152;11.004;2023-04-29T04:01:56;10.20;99.90
9730;DHT22;4904;49.152;11.004;2023-04-29T04:04:23;10.20;99.90
9730;DHT22;4904;49.152;11.004;2023-04-29T04:06:50;10.30;99.90
9730;DHT22;4904;49.152;11.004;2023-04-29T04:09:17;10.30;99.90
9730;DHT22;4904;49.152;11.004;2023-04-29T04:11:44;10.40;99.90
9730;DHT22;4904;49.152;11.004;2023-04-29T04:14:13;10.40;99.90
9730;DHT22;4904;49.152;11.004;2023-04-29T04:16:39;10.40;99.90
9730;DHT22;4904;49.152;11.004;2023-04-29T04:19:07;10.40;99.90
9730;DHT22;4904;49.152;11.004;2023-04-29T04:21:34;10.50;99.90
9730;DHT22;4904;49.152;11.004;2023-04-29T04:24:01;10.50;99.90
9730;DHT22;4904;49.152;11.004;2023-04-29T04:26:28;10.40;99.90
9730;DHT22;4904;49.152;11.004;2023-04-29T04:28:55;10.40;99.90
9730;DHT22;4904;49.152;11.004;2023-04-29T04:31:23;10.40;99.90
9730;DHT22;4904;49.152;11.004;2023-04-29T04:33:50;10.40;99.90
9730;DHT22;4904;49.152;11.004;2023-04-29T04:36:17;10.40;99.90
9730;DHT22;4904;49.152;11.004;2023-04-29T04:38:44;10.40;99.90
9730;DHT22;4904;49.152;11.004;2023-04-29T04:41:11;10.30;99.90
9730;DHT22;4904;49.152;11.004;2023-04-29T04:43:38;9.80;99.90
9730;DHT22;4904;49.152;11.004;2023-04-29T04:46:09;9.60;99.90
9730;DHT22;4904;49.152;11.004;2023-04-29T04:48:38;9.70;99.90
9730;DHT22;4904;49.152;11.004;2023-04-29T04:51:09;9.80;99.90
9730;DHT22;4904;49.152;11.004;2023-04-29T04:53:36;9.70;99.90
9730;DHT22;4904;49.152;11.004;2023-04-29T04:56:04;10.30;99.90
9730;DHT22;4904;49.152;11.004;2023-04-29T04:58:30;9.80;99.90
9730;DHT22;4904;49.152;11.004;2023-04-29T05:00:58;10.00;99.90
9730;DHT22;4904;49.152;11.004;2023-04-29T05:03:25;10.00;99.90
9730;DHT22;4904;49.152;11.004;2023-04-29T05:05:54;10.00;99.90
9730;DHT22;4904;49.152;11.004;2023-04-29T05:08:21;9.70;99.90
9730;DHT22;4904;49.152;11.004;2023-04-29T05:10:49;9.80;99.90
9730;DHT22;4904;49.152;11.004;2023-04-29T05:13:16;9.70;99.90
9730;DHT22;4904;49.152;11.004;2023-04-29T05:15:43;9.80;99.90
9730;DHT22;4904;49.152;11.004;2023-04-29T05:18:11;9.70;99.90
9730;DHT22;4904;49.152;11.004;2023-04-29T05:20:38;9.80;99.90
9730;DHT22;4904;49.152;11.004;2023-04-29T05:23:07;9.80;99.90
9730;DHT22;4904;49.152;11.004;2023-04-29T05:25:34;10.00;99.90
9730;DHT22;4904;49.152;11.004;2023-04-29T05:28:02;10.00;99.90
9730;DHT22;4904;49.152;11.004;2023-04-29T05:30:29;10.10;99.90
9730;DHT22;4904;49.152;11.004;2023-04-29T05:32:56;10.30;99.90
9730;DHT22;4904;49.152;11.004;2023-04-29T05:35:23;10.30;99.90
9730;DHT22;4904;49.152;11.004;2023-04-29T05:37:50;10.50;99.90
9730;DHT22;4904;49.152;11.004;2023-04-29T05:40:19;10.60;99.90
9730;DHT22;4904;49.152;11.004;2023-04-29T05:42:47;10.70;99.90
9730;DHT22;4904;49.152;11.004;2023-04-29T05:45:15;10.80;99.90
9730;DHT22;4904;49.152;11.004;2023-04-29T05:47:42;10.90;99.90
9730;DHT22;4904;49.152;11.004;2023-04-29T05:50:10;10.90;99.90
9730;DHT22;4904;49.152;11.004;2023-04-29T05:52:38;11.60;99.90
9730;DHT22;4904;49.152;11.004;2023-04-29T05:55:05;11.00;99.90
9730;DHT22;4904;49.152;11.004;2023-04-29T05:57:33;11.10;99.90
9730;DHT22;4904;49.152;11.004;2023-04-29T06:00:00;11.10;99.90
9730;DHT22;4904;49.152;11.004;2023-04-29T06:02:28;11.20;99.90
9730;DHT22;4904;49.152;11.004;2023-04-29T06:04:55;11.30;99.90
9730;DHT22;4904;49.152;11.004;2023-04-29T06:07:23;11.40;99.90
9730;DHT22;4904;49.152;11.004;2023-04-29T06:09:51;11.50;99.90
9730;DHT22;4904;49.152;11.004;2023-04-29T06:12:18;11.50;99.90
9730;DHT22;4904;49.152;11.004;2023-04-29T06:14:46;11.60;99.90
9730;DHT22;4904;49.152;11.004;2023-04-29T06:17:13;11.70;99.90
9730;DHT22;4904;49.152;11.004;2023-04-29T06:19:40;11.40;99.90
9730;DHT22;4904;49.152;11.004;2023-04-29T06:22:08;12.00;99.90
9730;DHT22;4904;49.152;11.004;2023-04-29T06:24:35;11.90;99.90
9730;DHT22;4904;49.152;11.004;2023-04-29T06:27:02;12.00;99.90
9730;DHT22;4904;49.152;11.004;2023-04-29T06:29:29;12.10;99.90
9730;DHT22;4904;49.152;11.004;2023-04-29T06:31:57;12.10;99.90
9730;DHT22;4904;49.152;11.004;2023-04-29T06:34:24;12.20;99.90
9730;DHT22;4904;49.152;11.004;2023-04-29T06:36:52;12.30;99.90
9730;DHT22;4904;49.152;11.004;2023-04-29T06:39:19;12.40;99.90
9730;DHT22;4904;49.152;11.004;2023-04-29T06:41:46;12.60;99.90
9730;DHT22;4904;49.152;11.004;2023-04-29T06:44:13;12.60;99.90
9730;DHT22;4904;49.152;11.004;2023-04-29T06:46:41;12.80;99.90
9730;DHT22;4904;49.152;11.004;2023-04-29T06:49:10;12.80;99.90
9730;DHT22;4904;49.152;11.004;2023-04-29T06:51:37;12.90;99.90
9730;DHT22;4904;49.152;11.004;2023-04-29T06:54:04;12.90;99.90
9730;DHT22;4904;49.152;11.004;2023-04-29T06:56:31;13.00;99.90
9730;DHT22;4904;49.152;11.004;2023-04-29T06:58:58;13.10;99.90
9730;DHT22;4904;49.152;11.004;2023-04-29T07:01:25;13.20;99.90
9730;DHT22;4904;49.152;11.004;2023-04-29T07:03:52;13.30;99.90
9730;DHT22;4904;49.152;11.004;2023-04-29T07:06:20;13.40;99.90
9730;DHT22;4904;49.152;11.004;2023-04-29T07:08:48;13.50;99.90
9730;DHT22;4904;49.152;11.004;2023-04-29T07:11:14;13.30;99.90
9730;DHT22;4904;49.152;11.004;2023-04-29T07:13:42;13.50;99.90
9730;DHT22;4904;49.152;11.004;2023-04-29T07:16:14;13.50;99.90
9730;DHT22;4904;49.152;11.004;2023-04-29T07:18:42;13.60;99.90
9730;DHT22;4904;49.152;11.004;2023-04-29T07:21:09;13.60;99.90
9730;DHT22;4904;49.152;11.004;2023-04-29T07:23:37;13.70;99.90
9730;DHT22;4904;49.152;11.004;2023-04-29T07:26:11;13.80;99.90
9730;DHT22;4904;49.152;11.004;2023-04-29T07:28:40;13.90;99.90
9730;DHT22;4904;49.152;11.004;2023-04-29T07:31:08;13.90;99.90
9730;DHT22;4904;49.152;11.004;2023-04-29T07:33:35;14.00;99.90
9730;DHT22;4904;49.152;11.004;2023-04-29T07:36:02;14.00;99.90
9730;DHT22;4904;49.152;11.004;2023-04-29T07:38:30;14.00;99.90
9730;DHT22;4904;49.152;11.004;2023-04-29T07:40:58;13.80;99.90
9730;DHT22;4904;49.152;11.004;2023-04-29T07:43:25;13.80;99.90
9730;DHT22;4904;49.152;11.004;2023-04-29T07:45:52;13.80;99.90
9730;DHT22;4904;49.152;11.004;2023-04-29T07:48:19;13.80;99.90
9730;DHT22;4904;49.152;11.004;2023-04-29T07:50:46;13.90;99.90
9730;DHT22;4904;49.152;11.004;2023-04-29T07:53:14;14.50;99.90
9730;DHT22;4904;49.152;11.004;2023-04-29T07:55:42;13.90;99.90
9730;DHT22;4904;49.152;11.004;2023-04-29T07:58:11;13.90;99.90
9730;DHT22;4904;49.152;11.004;2023-04-29T08:00:38;13.80;99.90
9730;DHT22;4904;49.152;11.004;2023-04-29T08:03:05;14.00;99.90
9730;DHT22;4904;49.152;11.004;2023-04-29T08:05:32;13.80;99.90
9730;DHT22;4904;49.152;11.004;2023-04-29T08:07:59;13.60;99.90
9730;DHT22;4904;49.152;11.004;2023-04-29T08:10:26;13.70;99.90
9730;DHT22;4904;49.152;11.004;2023-04-29T08:12:53;13.70;99.90
9730;DHT22;4904;49.152;11.004;2023-04-29T08:15:22;13.60;99.90
9730;DHT22;4904;49.152;11.004;2023-04-29T08:17:49;13.60;99.90
9730;DHT22;4904;49.152;11.004;2023-04-29T08:20:16;13.70;99.90
9730;DHT22;4904;49.152;11.004;2023-04-29T08:22:43;13.60;99.90
9730;DHT22;4904;49.152;11.004;2023-04-29T08:25:11;13.50;99.90
9730;DHT22;4904;49.152;11.004;2023-04-29T08:27:41;13.50;99.90
9730;DHT22;4904;49.152;11.004;2023-04-29T08:30:11;13.40;99.90
9730;DHT22;4904;49.152;11.004;2023-04-29T08:32:39;13.20;99.90
9730;DHT22;4904;49.152;11.004;2023-04-29T08:35:07;13.60;99.90
9730;DHT22;4904;49.152;11.004;2023-04-29T08:37:35;13.20;99.90
9730;DHT22;4904;49.152;11.004;2023-04-29T08:40:02;13.30;99.90
9730;DHT22;4904;49.152;11.004;2023-04-29T08:42:33;13.40;99.90
9730;DHT22;4904;49.152;11.004;2023-04-29T08:45:01;13.60;99.90
9730;DHT22;4904;49.152;11.004;2023-04-29T08:47:29;13.40;99.90
9730;DHT22;4904;49.152;11.004;2023-04-29T08:50:01;13.60;99.90
9730;DHT22;4904;49.152;11.004;2023-04-29T08:52:30;13.50;99.90
9730;DHT22;4904;49.152;11.004;2023-04-29T08:54:57;13.60;99.90
9730;DHT22;4904;49.152;11.004;2023-04-29T08:57:27;13.70;99.90
9730;DHT22;4904;49.152;11.004;2023-04-29T08:59:56;13.70;99.90
9730;DHT22;4904;49.152;11.004;2023-04-29T09:02:25;13.80;99.90
9730;DHT22;4904;49.152;11.004;2023-04-29T09:04:59;13.90;99.90
9730;DHT22;4904;49.152;11.004;2023-04-29T09:07:32;13.90;99.90
9730;DHT22;4904;49.152;11.004;2023-04-29T09:10:00;13.90;99.90
9730;DHT22;4904;49.152;11.004;2023-04-29T09:12:28;13.90;99.90
9730;DHT22;4904;49.152;11.004;2023-04-29T09:14:55;14.20;99.90
9730;DHT22;4904;49.152;11.004;2023-04-29T09:17:38;13.90;99.90
9730;DHT22;4904;49.152;11.004;2023-04-29T09:20:25;13.70;99.90
9730;DHT22;4904;49.152;11.004;2023-04-29T09:22:56;13.70;99.90
9730;DHT22;4904;49.152;11.004;2023-04-29T09:25:24;13.70;99.90
9730;DHT22;4904;49.152;11.004;2023-04-29T09:27:52;13.70;99.90
9730;DHT22;4904;49.152;11.004;2023-04-29T09:30:19;13.80;99.90
9730;DHT22;4904;49.152;11.004;2023-04-29T09:33:03;14.30;99.90
9730;DHT22;4904;49.152;11.004;2023-04-29T09:35:31;13.80;99.90
9730;DHT22;4904;49.152;11.004;2023-04-29T09:38:10;13.90;99.90
9730;DHT22;4904;49.152;11.004;2023-04-29T09:40:39;13.90;99.90
9730;DHT22;4904;49.152;11.004;2023-04-29T09:43:12;13.80;99.90
9730;DHT22;4904;49.152;11.004;2023-04-29T09:45:42;13.90;99.90
9730;DHT22;4904;49.152;11.004;2023-04-29T09:48:10;13.90;99.90
9730;DHT22;4904;49.152;11.004;2023-04-29T09:50:38;13.90;99.90
9730;DHT22;4904;49.152;11.004;2023-04-29T09:53:08;13.90;99.90
9730;DHT22;4904;49.152;11.004;2023-04-29T09:55:35;14.00;99.90
9730;DHT22;4904;49.152;11.004;2023-04-29T09:58:02;13.90;99.90
9730;DHT22;4904;49.152;11.004;2023-04-29T10:00:30;14.10;99.90
9730;DHT22;4904;49.152;11.004;2023-04-29T10:03:00;14.10;99.90
9730;DHT22;4904;49.152;11.004;2023-04-29T10:05:28;14.20;99.90
9730;DHT22;4904;49.152;11.004;2023-04-29T10:07:57;14.10;99.90
9730;DHT22;4904;49.152;11.004;2023-04-29T10:10:26;14.10;99.90
9730;DHT22;4904;49.152;11.004;2023-04-29T10:12:55;14.10;99.90
9730;DHT22;4904;49.152;11.004;2023-04-29T10:15:28;14.20;99.90
9730;DHT22;4904;49.152;11.004;2023-04-29T10:18:05;14.10;99.90
9730;DHT22;4904;49.152;11.004;2023-04-29T10:20:35;14.00;99.90
9730;DHT22;4904;49.152;11.004;2023-04-29T10:23:03;14.10;99.90
9730;DHT22;4904;49.152;11.004;2023-04-29T10:25:34;14.00;99.90
9730;DHT22;4904;49.152;11.004;2023-04-29T10:28:03;14.30;99.90
9730;DHT22;4904;49.152;11.004;2023-04-29T10:30:31;14.30;99.90
9730;DHT22;4904;49.152;11.004;2023-04-29T10:32:59;14.30;99.90
9730;DHT22;4904;49.152;11.004;2023-04-29T10:35:28;14.40;99.90
9730;DHT22;4904;49.152;11.004;2023-04-29T10:37:58;14.50;99.90
9730;DHT22;4904;49.152;11.004;2023-04-29T10:40:39;14.40;99.90
9730;DHT22;4904;49.152;11.004;2023-04-29T10:43:07;14.30;99.90
9730;DHT22;4904;49.152;11.004;2023-04-29T10:45:34;14.30;99.90
9730;DHT22;4904;49.152;11.004;2023-04-29T10:48:12;14.20;99.90
9730;DHT22;4904;49.152;11.004;2023-04-29T10:51:01;14.10;99.90
9730;DHT22;4904;49.152;11.004;2023-04-29T10:53:29;13.90;99.90
9730;DHT22;4904;49.152;11.004;2023-04-29T10:56:02;13.90;99.90
9730;DHT22;4904;49.152;11.004;2023-04-29T10:58:42;13.80;99.90
9730;DHT22;4904;49.152;11.004;2023-04-29T11:01:11;13.80;99.90
9730;DHT22;4904;49.152;11.004;2023-04-29T11:03:50;13.80;99.90
9730;DHT22;4904;49.152;11.004;2023-04-29T11:06:21;13.80;99.90
9730;DHT22;4904;49.152;11.004;2023-04-29T11:08:59;13.80;99.90
9730;DHT22;4904;49.152;11.004;2023-04-29T11:11:39;13.90;99.90
9730;DHT22;4904;49.152;11.004;2023-04-29T11:14:08;13.80;99.90
9730;DHT22;4904;49.152;11.004;2023-04-29T11:16:36;13.90;99.90
9730;DHT22;4904;49.152;11.004;2023-04-29T11:19:05;13.90;99.90
9730;DHT22;4904;49.152;11.004;2023-04-29T11:21:33;14.10;99.90
9730;DHT22;4904;49.152;11.004;2023-04-29T11:24:00;14.20;99.90
9730;DHT22;4904;49.152;11.004;2023-04-29T11:26:28;14.20;99.90
9730;DHT22;4904;49.152;11.004;2023-04-29T11:28:57;14.10;99.90
9730;DHT22;4904;49.152;11.004;2023-04-29T11:31:29;14.20;99.90
9730;DHT22;4904;49.152;11.004;2023-04-29T11:33:57;14.10;99.90
9730;DHT22;4904;49.152;11.004;2023-04-29T11:36:24;14.20;99.90
9730;DHT22;4904;49.152;11.004;2023-04-29T11:38:52;14.30;99.90
9730;DHT22;4904;49.152;11.004;2023-04-29T11:41:20;14.20;99.90
9730;DHT22;4904;49.152;11.004;2023-04-29T11:43:54;14.30;99.90
9730;DHT22;4904;49.152;11.004;2023-04-29T11:46:24;14.30;99.90
9730;DHT22;4904;49.152;11.004;2023-04-29T11:48:53;14.30;99.90
9730;DHT22;4904;49.152;11.004;2023-04-29T11:51:22;14.20;99.90
9730;DHT22;4904;49.152;11.004;2023-04-29T11:53:50;14.20;99.90
9730;DHT22;4904;49.152;11.004;2023-04-29T11:56:20;14.10;99.90
9730;DHT22;4904;49.152;11.004;2023-04-29T11:58:52;14.10;99.90
9730;DHT22;4904;49.152;11.004;2023-04-29T12:01:20;14.20;99.90
9730;DHT22;4904;49.152;11.004;2023-04-29T12:03:56;14.10;99.90
9730;DHT22;4904;49.152;11.004;2023-04-29T12:06:27;14.10;99.90
9730;DHT22;4904;49.152;11.004;2023-04-29T12:08:54;14.10;99.90
9730;DHT22;4904;49.152;11.004;2023-04-29T12:11:22;14.10;99.90
9730;DHT22;4904;49.152;11.004;2023-04-29T12:13:50;14.00;99.90
9730;DHT22;4904;49.152;11.004;2023-04-29T12:16:17;14.10;99.90
9730;DHT22;4904;49.152;11.004;2023-04-29T12:18:45;14.00;99.90
9730;DHT22;4904;49.152;11.004;2023-04-29T12:21:13;14.10;99.90
9730;DHT22;4904;49.152;11.004;2023-04-29T12:23:41;14.10;99.90
9730;DHT22;4904;49.152;11.004;2023-04-29T12:26:09;14.30;99.90
9730;DHT22;4904;49.152;11.004;2023-04-29T12:28:39;14.50;99.90
9730;DHT22;4904;49.152;11.004;2023-04-29T12:31:08;14.40;99.90
9730;DHT22;4904;49.152;11.004;2023-04-29T12:33:36;14.60;99.90
9730;DHT22;4904;49.152;11.004;2023-04-29T12:36:16;14.50;99.90
9730;DHT22;4904;49.152;11.004;2023-04-29T12:38:43;14.40;99.90
9730;DHT22;4904;49.152;11.004;2023-04-29T12:41:11;14.40;99.90
9730;DHT22;4904;49.152;11.004;2023-04-29T12:43:42;14.50;99.90
9730;DHT22;4904;49.152;11.004;2023-04-29T12:46:10;14.50;99.90
9730;DHT22;4904;49.152;11.004;2023-04-29T12:48:40;14.50;99.90
9730;DHT22;4904;49.152;11.004;2023-04-29T12:51:08;14.50;99.90
9730;DHT22;4904;49.152;11.004;2023-04-29T12:53:37;14.60;99.90
9730;DHT22;4904;49.152;11.004;2023-04-29T12:56:06;14.60;99.90
9730;DHT22;4904;49.152;11.004;2023-04-29T12:58:33;14.60;99.90
9730;DHT22;4904;49.152;11.004;2023-04-29T13:01:00;14.60;99.90
9730;DHT22;4904;49.152;11.004;2023-04-29T13:03:27;14.60;99.90
9730;DHT22;4904;49.152;11.004;2023-04-29T13:05:54;14.60;99.90
9730;DHT22;4904;49.152;11.004;2023-04-29T13:08:21;14.60;99.90
9730;DHT22;4904;49.152;11.004;2023-04-29T13:10:50;14.60;99.90
9730;DHT22;4904;49.152;11.004;2023-04-29T13:13:18;14.70;99.90
9730;DHT22;4904;49.152;11.004;2023-04-29T13:15:45;14.50;99.90
9730;DHT22;4904;49.152;11.004;2023-04-29T13:18:12;14.40;99.90
9730;DHT22;4904;49.152;11.004;2023-04-29T13:20:39;14.30;99.90
9730;DHT22;4904;49.152;11.004;2023-04-29T13:23:07;14.30;99.90
9730;DHT22;4904;49.152;11.004;2023-04-29T13:25:34;14.60;99.90
9730;DHT22;4904;49.152;11.004;2023-04-29T13:28:03;14.50;99.90
9730;DHT22;4904;49.152;11.004;2023-04-29T13:30:31;14.50;99.90
9730;DHT22;4904;49.152;11.004;2023-04-29T13:32:59;14.40;99.90
9730;DHT22;4904;49.152;11.004;2023-04-29T13:35:26;14.40;99.90
9730;DHT22;4904;49.152;11.004;2023-04-29T13:37:54;14.40;99.90
9730;DHT22;4904;49.152;11.004;2023-04-29T13:40:21;14.40;99.90
9730;DHT22;4904;49.152;11.004;2023-04-29T13:42:48;14.50;99.90
9730;DHT22;4904;49.152;11.004;2023-04-29T13:45:17;14.50;99.90
9730;DHT22;4904;49.152;11.004;2023-04-29T13:47:44;14.40;99.90
9730;DHT22;4904;49.152;11.004;2023-04-29T13:50:11;14.20;99.90
9730;DHT22;4904;49.152;11.004;2023-04-29T13:52:38;14.30;99.90
9730;DHT22;4904;49.152;11.004;2023-04-29T13:55:06;14.30;99.90
9730;DHT22;4904;49.152;11.004;2023-04-29T13:57:33;14.30;99.90
9730;DHT22;4904;49.152;11.004;2023-04-29T14:00:00;14.30;99.90
9730;DHT22;4904;49.152;11.004;2023-04-29T14:02:29;14.40;99.90
9730;DHT22;4904;49.152;11.004;2023-04-29T14:04:56;14.40;99.90
9730;DHT22;4904;49.152;11.004;2023-04-29T14:07:23;14.50;99.90
9730;DHT22;4904;49.152;11.004;2023-04-29T14:09:50;14.60;99.90
9730;DHT22;4904;49.152;11.004;2023-04-29T14:12:17;14.60;99.90
9730;DHT22;4904;49.152;11.004;2023-04-29T14:14:44;14.70;99.90
9730;DHT22;4904;49.152;11.004;2023-04-29T14:17:12;14.50;99.90
9730;DHT22;4904;49.152;11.004;2023-04-29T14:19:40;14.60;99.90
9730;DHT22;4904;49.152;11.004;2023-04-29T14:22:07;14.60;99.90
9730;DHT22;4904;49.152;11.004;2023-04-29T14:24:34;14.40;99.90
9730;DHT22;4904;49.152;11.004;2023-04-29T14:27:01;14.20;99.90
9730;DHT22;4904;49.152;11.004;2023-04-29T14:29:28;14.20;99.90
9730;DHT22;4904;49.152;11.004;2023-04-29T14:31:56;14.10;99.90
9730;DHT22;4904;49.152;11.004;2023-04-29T14:34:23;14.00;99.90
9730;DHT22;4904;49.152;11.004;2023-04-29T14:36:51;14.10;99.90
9730;DHT22;4904;49.152;11.004;2023-04-29T14:39:18;14.00;99.90
9730;DHT22;4904;49.152;11.004;2023-04-29T14:41:45;13.90;99.90
9730;DHT22;4904;49.152;11.004;2023-04-29T14:44:13;13.90;99.90
9730;DHT22;4904;49.152;11.004;2023-04-29T14:46:40;13.90;99.90
9730;DHT22;4904;49.152;11.004;2023-04-29T14:49:07;13.90;99.90
9730;DHT22;4904;49.152;11.004;2023-04-29T14:51:34;13.90;99.90
9730;DHT22;4904;49.152;11.004;2023-04-29T14:54:03;14.00;99.90
9730;DHT22;4904;49.152;11.004;2023-04-29T14:56:30;14.20;99.90
9730;DHT22;4904;49.152;11.004;2023-04-29T14:58:57;14.50;99.90
9730;DHT22;4904;49.152;11.004;2023-04-29T15:01:23;14.40;99.90
9730;DHT22;4904;49.152;11.004;2023-04-29T15:03:52;14.50;99.90
9730;DHT22;4904;49.152;11.004;2023-04-29T15:06:19;14.70;99.90
9730;DHT22;4904;49.152;11.004;2023-04-29T15:08:46;14.50;99.90
9730;DHT22;4904;49.152;11.004;2023-04-29T15:11:15;14.50;99.90
9730;DHT22;4904;49.152;11.004;2023-04-29T15:13:42;14.20;99.90
9730;DHT22;4904;49.152;11.004;2023-04-29T15:16:09;14.10;99.90
9730;DHT22;4904;49.152;11.004;2023-04-29T15:18:36;14.10;99.90
9730;DHT22;4904;49.152;11.004;2023-04-29T15:21:03;14.20;99.90
9730;DHT22;4904;49.152;11.004;2023-04-29T15:23:31;14.20;99.90
9730;DHT22;4904;49.152;11.004;2023-04-29T15:25:59;14.30;99.90
9730;DHT22;4904;49.152;11.004;2023-04-29T15:28:27;14.10;99.90
9730;DHT22;4904;49.152;11.004;2023-04-29T15:30:54;14.10;99.90
9730;DHT22;4904;49.152;11.004;2023-04-29T15:33:21;14.10;99.90
9730;DHT22;4904;49.152;11.004;2023-04-29T15:35:48;14.00;99.90
9730;DHT22;4904;49.152;11.004;2023-04-29T15:38:15;14.10;99.90
9730;DHT22;4904;49.152;11.004;2023-04-29T15:40:43;13.90;99.90
9730;DHT22;4904;49.152;11.004;2023-04-29T15:43:10;13.90;99.90
9730;DHT22;4904;49.152;11.004;2023-04-29T15:45:39;13.90;99.90
9730;DHT22;4904;49.152;11.004;2023-04-29T15:48:06;13.90;99.90
9730;DHT22;4904;49.152;11.004;2023-04-29T15:50:34;14.00;99.90
9730;DHT22;4904;49.152;11.004;2023-04-29T15:53:01;14.00;99.90
9730;DHT22;4904;49.152;11.004;2023-04-29T15:55:28;13.90;99.90